createdAt,value
2018-03-19T19:31:03.459Z,51.51
2018-03-19T19:33:30.375Z,53.22
2018-03-19T19:35:57.319Z,54.47
2018-03-19T19:38:25.558Z,55.42
2018-03-19T19:40:52.485Z,56.36
2018-03-19T19:43:19.403Z,56.62
2018-03-19T19:45:46.318Z,57.23
2018-03-19T19:48:13.261Z,57.17
2018-03-19T19:50:40.177Z,57.36
2018-03-19T19:53:07.095Z,57.51
2018-03-19T19:55:34.016Z,57.51
2018-03-19T19:58:00.938Z,57.62
2018-03-19T20:00:27.877Z,57.74
2018-03-19T20:02:54.800Z,57.90
2018-03-19T20:05:21.722Z,58.07
2018-03-19T20:07:48.644Z,58.08
2018-03-19T20:10:15.569Z,58.08
2018-03-19T20:12:42.488Z,58.13
2018-03-19T20:15:09.425Z,58.28
2018-03-19T20:17:36.383Z,58.45
2018-03-19T20:20:03.306Z,58.57
2018-03-19T20:22:30.357Z,58.68
2018-03-19T20:24:57.281Z,58.55
2018-03-19T20:27:24.206Z,58.50
2018-03-19T20:29:51.131Z,58.70
2018-03-19T20:32:18.059Z,59.32
2018-03-19T20:34:45.015Z,59.51
2018-03-19T20:37:11.933Z,59.69
2018-03-19T20:39:38.850Z,59.58
2018-03-19T20:42:05.811Z,59.82
2018-03-19T20:44:32.691Z,59.77
2018-03-19T20:46:59.651Z,59.75
2018-03-19T20:49:26.569Z,59.75
2018-03-19T20:51:53.483Z,59.89
2018-03-19T20:54:20.410Z,59.71
2018-03-19T20:56:47.335Z,59.58
2018-03-19T20:59:14.284Z,59.59
2018-03-19T21:01:41.206Z,59.79
2018-03-19T21:04:08.132Z,59.81
2018-03-19T21:06:35.089Z,59.88
2018-03-19T21:09:02.004Z,60.01
2018-03-19T21:11:28.941Z,59.85
2018-03-19T21:13:55.859Z,60.08
2018-03-19T21:16:22.778Z,60.05
2018-03-19T21:18:49.723Z,60.19
2018-03-19T21:21:16.647Z,60.12
2018-03-19T21:23:43.562Z,60.03
2018-03-19T21:26:10.498Z,59.87
2018-03-19T21:28:37.423Z,59.82
2018-03-19T21:31:04.377Z,59.72
2018-03-19T21:33:31.300Z,59.62
2018-03-19T21:35:58.364Z,59.65
2018-03-19T21:38:25.286Z,59.63
2018-03-19T21:40:52.206Z,59.62
2018-03-19T21:43:19.160Z,59.53
2018-03-19T21:45:46.082Z,59.56
2018-03-19T21:48:13.006Z,59.53
2018-03-19T21:50:39.929Z,59.55
2018-03-19T21:53:06.852Z,59.54
2018-03-19T21:55:33.800Z,59.45
2018-03-19T21:58:00.724Z,59.46
2018-03-19T22:00:27.645Z,59.39
2018-03-19T22:02:54.564Z,59.41
2018-03-19T22:05:21.479Z,59.27
2018-03-19T22:07:48.422Z,59.20
2018-03-19T22:10:15.346Z,59.23
2018-03-19T22:12:42.276Z,59.09
2018-03-19T22:15:09.199Z,59.07
2018-03-19T22:17:36.115Z,58.95
2018-03-19T22:20:03.060Z,58.93
2018-03-19T22:22:29.985Z,58.92
2018-03-19T22:24:56.896Z,58.81
2018-03-19T22:27:23.823Z,58.71
2018-03-19T22:29:50.740Z,58.57
2018-03-19T22:32:17.683Z,58.56
2018-03-19T22:34:44.622Z,58.48
2018-03-19T22:37:11.545Z,58.44
2018-03-19T22:39:38.472Z,58.34
2018-03-19T22:42:05.395Z,58.30
2018-03-19T22:44:32.360Z,58.30
2018-03-19T22:46:59.255Z,58.23
2018-03-19T22:49:26.176Z,58.17
2018-03-19T22:51:53.095Z,58.09
2018-03-19T22:54:20.017Z,58.05
2018-03-19T22:56:46.968Z,57.96
2018-03-19T22:59:13.882Z,57.92
2018-03-19T23:01:40.805Z,57.91
2018-03-19T23:04:07.731Z,57.87
2018-03-19T23:06:34.646Z,57.84
2018-03-19T23:09:01.601Z,57.83
2018-03-19T23:11:28.525Z,57.70
2018-03-19T23:13:55.439Z,57.76
2018-03-19T23:16:22.359Z,57.68
2018-03-19T23:18:49.286Z,57.62
2018-03-19T23:21:16.224Z,57.55
2018-03-19T23:23:43.143Z,57.55
2018-03-19T23:26:10.091Z,57.46
2018-03-19T23:28:37.017Z,57.46
2018-03-19T23:31:03.945Z,57.46
2018-03-19T23:33:30.866Z,57.37
2018-03-19T23:35:57.810Z,57.32
2018-03-19T23:38:24.734Z,57.25
2018-03-19T23:40:51.661Z,57.25
2018-03-19T23:43:18.644Z,57.31
2018-03-19T23:45:45.523Z,57.23
2018-03-19T23:48:12.440Z,57.18
2018-03-19T23:50:39.364Z,57.17
2018-03-19T23:53:06.287Z,57.06
2018-03-19T23:55:33.208Z,57.01
2018-03-19T23:58:00.131Z,57.06
